Time,TemperatureF,DewpointF,PressureIn,WindDirection,WindDirectionDegrees,WindSpeedMPH,WindSpeedGustMPH,Humidity,HourlyPrecipIn,Conditions,Clouds,dailyrainin,SoftwareType,DateUTC
2013-08-19 00:00:00,61.1,59.7,30.16,West,267,0.0,0.0,95,0.00,,CLR,0.00,VWS V14.01,2013-08-19 04:00:00,
2013-08-19 00:01:00,61.0,59.6,30.16,West,267,0.0,0.0,95,0.00,,CLR,0.00,VWS V14.01,2013-08-19 04:01:00,
2013-08-19 00:02:00,61.0,59.6,30.16,West,267,0.0,0.0,95,0.00,,CLR,0.00,VWS V14.01,2013-08-19 04:02:00,
2013-08-19 00:03:00,61.0,59.6,30.16,West,267,0.0,0.0,95,0.00,,CLR,0.00,VWS V14.01,2013-08-19 04:03:00,
2013-08-19 00:08:00,60.8,59.4,30.16,West,267,0.0,0.0,95,0.00,,CLR,0.00,VWS V14.01,2013-08-19 04:08:00,
2013-08-19 00:13:00,60.7,59.3,30.16,West,267,0.0,0.0,95,0.00,,CLR,0.00,VWS V14.01,2013-08-19 04:13:00,
2013-08-19 00:18:00,61.0,59.9,30.16,West,262,0.0,0.0,96,0.00,,CLR,0.00,VWS V14.01,2013-08-19 04:18:00,
2013-08-19 00:23:00,61.6,60.2,30.17,West,263,0.0,0.0,95,0.00,,CLR,0.00,VWS V14.01,2013-08-19 04:23:00,
2013-08-19 00:28:00,62.0,60.3,30.17,West,260,0.0,0.0,94,0.00,,CLR,0.00,VWS V14.01,2013-08-19 04:28:00,
2013-08-19 00:30:00,62.3,60.3,30.16,West,262,0.0,0.0,93,0.00,,OVC,0.00,VWS V14.01,2013-08-19 04:30:00,
2013-08-19 00:33:00,62.4,60.3,30.16,West,259,0.0,0.0,93,0.00,,CLR,0.00,VWS V14.01,2013-08-19 04:33:00,
2013-08-19 00:38:00,62.6,60.2,30.17,WSW,256,0.0,0.0,92,0.00,,CLR,0.00,VWS V14.01,2013-08-19 04:38:00,
2013-08-19 00:43:00,62.8,60.1,30.17,West,260,0.0,0.0,91,0.00,,CLR,0.00,VWS V14.01,2013-08-19 04:43:00,
2013-08-19 00:48:00,62.9,60.2,30.17,West,267,1.0,1.0,91,0.00,,CLR,0.00,VWS V14.01,2013-08-19 04:48:00,
2013-08-19 00:53:00,63.0,60.0,30.17,West,262,1.0,1.0,90,0.00,,CLR,0.00,VWS V14.01,2013-08-19 04:53:00,
2013-08-19 00:58:00,63.2,60.2,30.17,West,263,1.0,1.0,90,0.00,,CLR,0.00,VWS V14.01,2013-08-19 04:58:00,
2013-08-19 01:00:00,63.3,60.3,30.17,West,263,1.0,1.0,90,0.00,,OVC,0.00,VWS V14.01,2013-08-19 05:00:00,
2013-08-19 01:03:00,63.3,60.3,30.17,West,263,1.0,1.0,90,0.00,,CLR,0.00,VWS V14.01,2013-08-19 05:03:00,
2013-08-19 01:08:00,63.3,60.0,30.17,West,276,1.0,1.0,89,0.00,,CLR,0.00,VWS V14.01,2013-08-19 05:08:00,
2013-08-19 01:13:00,63.3,60.0,30.16,West,274,0.0,1.0,89,0.00,,CLR,0.00,VWS V14.01,2013-08-19 05:13:00,
2013-08-19 01:18:00,63.4,60.1,30.16,WSW,254,0.0,1.0,89,0.00,,CLR,0.00,VWS V14.01,2013-08-19 05:18:00,
2013-08-19 01:23:00,63.4,60.1,30.16,West,259,1.0,1.0,89,0.00,,CLR,0.00,VWS V14.01,2013-08-19 05:23:00,
2013-08-19 01:28:00,63.5,59.9,30.17,West,264,1.0,1.0,88,0.00,,CLR,0.00,VWS V14.01,2013-08-19 05:28:00,
2013-08-19 01:30:00,63.6,60.0,30.17,West,264,1.0,1.0,88,0.00,,OVC,0.00,VWS V14.01,2013-08-19 05:30:00,
2013-08-19 01:34:00,63.6,60.0,30.17,West,269,1.0,2.0,88,0.00,,CLR,0.00,VWS V14.01,2013-08-19 05:34:00,
2013-08-19 01:39:00,63.8,60.2,30.16,West,268,1.0,2.0,88,0.00,,CLR,0.00,VWS V14.01,2013-08-19 05:39:00,
2013-08-19 01:44:00,63.8,60.2,30.16,West,269,0.0,2.0,88,0.00,,CLR,0.00,VWS V14.01,2013-08-19 05:44:00,
2013-08-19 01:49:00,63.5,59.9,30.16,West,269,0.0,2.0,88,0.00,,CLR,0.00,VWS V14.01,2013-08-19 05:49:00,
2013-08-19 01:54:00,63.1,59.8,30.16,West,269,0.0,2.0,89,0.00,,CLR,0.00,VWS V14.01,2013-08-19 05:54:00,
2013-08-19 01:59:00,62.8,59.8,30.16,West,269,0.0,2.0,90,0.00,,CLR,0.00,VWS V14.01,2013-08-19 05:59:00,
2013-08-19 02:00:00,62.5,59.5,30.16,West,269,0.0,2.0,90,0.00,,OVC,0.00,VWS V14.01,2013-08-19 06:00:00,
2013-08-19 02:04:00,62.4,59.4,30.16,West,269,0.0,0.0,90,0.00,,CLR,0.00,VWS V14.01,2013-08-19 06:04:00,
2013-08-19 02:09:00,62.1,59.5,30.16,West,269,0.0,0.0,91,0.00,,CLR,0.00,VWS V14.01,2013-08-19 06:09:00,
2013-08-19 02:14:00,61.8,59.2,30.16,West,269,0.0,0.0,91,0.00,,CLR,0.00,VWS V14.01,2013-08-19 06:14:00,
2013-08-19 02:19:00,61.7,59.4,30.16,West,269,0.0,0.0,92,0.00,,CLR,0.00,VWS V14.01,2013-08-19 06:19:00,
2013-08-19 02:24:00,61.4,59.1,30.16,West,269,0.0,0.0,92,0.00,,CLR,0.00,VWS V14.01,2013-08-19 06:24:00,
2013-08-19 02:29:00,61.2,58.9,30.16,West,268,0.0,0.0,92,0.00,,CLR,0.00,VWS V14.01,2013-08-19 06:29:00,
2013-08-19 02:30:00,61.1,59.1,30.15,West,269,0.0,0.0,93,0.00,,OVC,0.00,VWS V14.01,2013-08-19 06:30:00,
2013-08-19 02:34:00,61.0,59.0,30.15,West,269,0.0,0.0,93,0.00,,CLR,0.00,VWS V14.01,2013-08-19 06:34:00,
2013-08-19 02:39:00,60.8,58.8,30.15,West,269,0.0,0.0,93,0.00,,CLR,0.00,VWS V14.01,2013-08-19 06:39:00,
2013-08-19 02:44:00,60.7,58.7,30.15,West,269,0.0,0.0,93,0.00,,CLR,0.00,VWS V14.01,2013-08-19 06:44:00,
2013-08-19 02:49:00,60.5,58.5,30.15,West,269,0.0,0.0,93,0.00,,CLR,0.00,VWS V14.01,2013-08-19 06:49:00,
2013-08-19 02:54:00,60.5,58.8,30.15,West,269,0.0,0.0,94,0.00,,CLR,0.00,VWS V14.01,2013-08-19 06:54:00,
2013-08-19 03:00:00,60.4,58.7,30.15,West,269,0.0,0.0,94,0.00,,CLR,0.00,VWS V14.01,2013-08-19 07:00:00,
2013-08-19 03:05:00,60.4,58.7,30.15,West,269,0.0,1.0,94,0.00,,CLR,0.00,VWS V14.01,2013-08-19 07:05:00,
2013-08-19 03:10:00,60.5,59.1,30.15,West,269,0.0,1.0,95,0.00,,CLR,0.00,VWS V14.01,2013-08-19 07:10:00,
2013-08-19 03:15:00,60.6,59.2,30.15,West,268,0.0,1.0,95,0.00,,CLR,0.00,VWS V14.01,2013-08-19 07:15:00,
2013-08-19 03:20:00,60.5,59.1,30.15,West,269,0.0,1.0,95,0.00,,CLR,0.00,VWS V14.01,2013-08-19 07:20:00,
2013-08-19 03:25:00,60.7,59.3,30.15,West,277,0.0,2.0,95,0.00,,CLR,0.00,VWS V14.01,2013-08-19 07:25:00,
2013-08-19 03:30:00,61.1,59.4,30.15,West,268,0.0,2.0,94,0.00,,CLR,0.00,VWS V14.01,2013-08-19 07:30:00,
2013-08-19 03:35:00,61.6,59.6,30.15,West,270,0.0,1.0,93,0.00,,CLR,0.00,VWS V14.01,2013-08-19 07:35:00,
2013-08-19 03:40:00,62.0,59.3,30.15,West,270,1.0,1.0,91,0.00,,CLR,0.00,VWS V14.01,2013-08-19 07:40:00,
2013-08-19 03:45:00,62.2,59.5,30.15,West,271,0.0,1.0,91,0.00,,CLR,0.00,VWS V14.01,2013-08-19 07:45:00,
2013-08-19 03:50:00,62.3,59.3,30.15,West,271,1.0,1.0,90,0.00,,CLR,0.00,VWS V14.01,2013-08-19 07:50:00,
2013-08-19 03:55:00,62.4,59.4,30.15,West,271,0.0,1.0,90,0.00,,CLR,0.00,VWS V14.01,2013-08-19 07:55:00,
2013-08-19 04:00:00,62.4,59.4,30.15,West,271,0.0,1.0,90,0.00,,CLR,0.00,VWS V14.01,2013-08-19 08:00:00,
2013-08-19 04:05:00,62.4,59.4,30.15,West,271,0.0,0.0,90,0.00,,CLR,0.00,VWS V14.01,2013-08-19 08:05:00,
2013-08-19 04:10:00,62.6,59.3,30.15,West,273,0.0,0.0,89,0.00,,CLR,0.00,VWS V14.01,2013-08-19 08:10:00,
2013-08-19 04:15:00,62.6,59.3,30.15,West,281,1.0,2.0,89,0.00,,CLR,0.00,VWS V14.01,2013-08-19 08:15:00,
2013-08-19 04:20:00,62.6,59.3,30.15,West,273,1.0,2.0,89,0.00,,CLR,0.00,VWS V14.01,2013-08-19 08:20:00,
2013-08-19 04:25:00,62.5,59.2,30.15,West,273,0.0,2.0,89,0.00,,CLR,0.00,VWS V14.01,2013-08-19 08:25:00,
2013-08-19 04:30:00,62.3,59.3,30.15,West,274,1.0,2.0,90,0.00,,OVC,0.00,VWS V14.01,2013-08-19 08:30:00,
2013-08-19 04:31:00,62.4,59.4,30.15,West,274,0.0,2.0,90,0.00,,CLR,0.00,VWS V14.01,2013-08-19 08:31:00,
2013-08-19 04:36:00,62.2,59.2,30.15,West,274,0.0,1.0,90,0.00,,CLR,0.00,VWS V14.01,2013-08-19 08:36:00,
2013-08-19 04:41:00,62.1,59.1,30.15,West,274,0.0,1.0,90,0.00,,CLR,0.00,VWS V14.01,2013-08-19 08:41:00,
2013-08-19 04:46:00,62.1,59.1,30.15,West,274,0.0,1.0,90,0.00,,FEW050,0.00,VWS V14.01,2013-08-19 08:46:00,
2013-08-19 04:51:00,62.1,59.1,30.15,West,274,1.0,1.0,90,0.00,,FEW050,0.00,VWS V14.01,2013-08-19 08:51:00,
2013-08-19 04:56:00,62.0,59.0,30.15,West,280,1.0,2.0,90,0.00,,FEW050,0.00,VWS V14.01,2013-08-19 08:56:00,
2013-08-19 05:00:00,62.0,59.0,30.15,West,273,1.0,2.0,90,0.00,,OVC,0.00,VWS V14.01,2013-08-19 09:00:00,
2013-08-19 05:01:00,62.0,59.0,30.15,West,268,1.0,2.0,90,0.00,,FEW050,0.00,VWS V14.01,2013-08-19 09:01:00,
2013-08-19 05:06:00,62.0,59.0,30.16,West,269,0.0,2.0,90,0.00,,FEW050,0.00,VWS V14.01,2013-08-19 09:06:00,
2013-08-19 05:11:00,61.9,58.9,30.15,West,271,1.0,2.0,90,0.00,,FEW050,0.00,VWS V14.01,2013-08-19 09:11:00,
2013-08-19 05:16:00,61.8,59.2,30.15,West,276,1.0,2.0,91,0.00,,FEW050,0.00,VWS V14.01,2013-08-19 09:16:00,
2013-08-19 05:21:00,61.7,59.0,30.16,West,273,1.0,2.0,91,0.00,,FEW050,0.00,VWS V14.01,2013-08-19 09:21:00,
2013-08-19 05:26:00,61.7,59.0,30.16,West,278,1.0,2.0,91,0.00,,FEW050,0.00,VWS V14.01,2013-08-19 09:26:00,
2013-08-19 05:30:00,61.6,59.0,30.15,West,273,1.0,2.0,91,0.00,,OVC,0.00,VWS V14.01,2013-08-19 09:30:00,
2013-08-19 05:31:00,61.7,59.0,30.15,West,277,1.0,2.0,91,0.00,,FEW050,0.00,VWS V14.01,2013-08-19 09:31:00,
2013-08-19 05:36:00,61.7,59.0,30.16,West,273,0.0,1.0,91,0.00,,FEW050,0.00,VWS V14.01,2013-08-19 09:36:00,
2013-08-19 05:41:00,61.7,59.0,30.16,West,274,0.0,1.0,91,0.00,,FEW050,0.00,VWS V14.01,2013-08-19 09:41:00,
2013-08-19 05:46:00,61.7,59.0,30.16,West,277,1.0,1.0,91,0.00,,CLR,0.00,VWS V14.01,2013-08-19 09:46:00,
2013-08-19 05:51:00,61.6,59.0,30.16,West,277,0.0,1.0,91,0.00,,CLR,0.00,VWS V14.01,2013-08-19 09:51:00,
2013-08-19 05:56:00,61.5,58.8,30.16,West,277,0.0,1.0,91,0.00,,CLR,0.00,VWS V14.01,2013-08-19 09:56:00,
2013-08-19 06:00:00,61.4,58.8,30.16,West,276,0.0,1.0,91,0.00,,OVC,0.00,VWS V14.01,2013-08-19 10:00:00,
2013-08-19 06:02:00,61.4,58.8,30.16,West,277,0.0,1.0,91,0.00,,CLR,0.00,VWS V14.01,2013-08-19 10:02:00,
2013-08-19 06:07:00,61.2,58.6,30.16,West,277,0.0,0.0,91,0.00,,CLR,0.00,VWS V14.01,2013-08-19 10:07:00,
2013-08-19 06:12:00,60.9,58.3,30.16,West,277,0.0,0.0,91,0.00,,CLR,0.00,VWS V14.01,2013-08-19 10:12:00,
2013-08-19 06:17:00,60.6,58.3,30.16,West,277,0.0,0.0,92,0.00,,CLR,0.00,VWS V14.01,2013-08-19 10:17:00,
2013-08-19 06:22:00,60.3,58.0,30.16,West,276,0.0,0.0,92,0.00,,CLR,0.00,VWS V14.01,2013-08-19 10:22:00,
2013-08-19 06:27:00,60.0,58.0,30.16,West,277,0.0,0.0,93,0.00,,CLR,0.00,VWS V14.01,2013-08-19 10:27:00,
2013-08-19 06:30:00,59.7,57.7,30.16,West,277,0.0,0.0,93,0.00,,OVC,0.00,VWS V14.01,2013-08-19 10:30:00,
2013-08-19 06:32:00,59.8,57.8,30.16,West,276,0.0,0.0,93,0.00,,CLR,0.00,VWS V14.01,2013-08-19 10:32:00,
2013-08-19 06:37:00,59.5,57.5,30.16,West,277,0.0,0.0,93,0.00,,CLR,0.00,VWS V14.01,2013-08-19 10:37:00,
2013-08-19 06:42:00,59.3,57.3,30.16,West,276,0.0,0.0,93,0.00,,CLR,0.00,VWS V14.01,2013-08-19 10:42:00,
2013-08-19 06:47:00,59.1,57.1,30.16,West,277,0.0,0.0,93,0.00,,CLR,0.00,VWS V14.01,2013-08-19 10:47:00,
2013-08-19 06:52:00,58.9,57.2,30.16,West,277,0.0,0.0,94,0.00,,CLR,0.00,VWS V14.01,2013-08-19 10:52:00,
2013-08-19 06:57:00,58.8,57.4,30.16,West,276,0.0,0.0,95,0.00,,CLR,0.00,VWS V14.01,2013-08-19 10:57:00,
2013-08-19 07:00:00,59.1,57.7,30.16,West,273,0.0,0.0,95,0.00,,OVC,0.00,VWS V14.01,2013-08-19 11:00:00,
2013-08-19 07:02:00,59.1,57.7,30.16,West,273,0.0,0.0,95,0.00,,CLR,0.00,VWS V14.01,2013-08-19 11:02:00,
2013-08-19 07:07:00,59.4,58.0,30.16,West,269,0.0,0.0,95,0.00,,CLR,0.00,VWS V14.01,2013-08-19 11:07:00,
2013-08-19 07:12:00,59.6,58.2,30.17,West,270,0.0,0.0,95,0.00,,CLR,0.00,VWS V14.01,2013-08-19 11:12:00,
2013-08-19 07:17:00,59.8,58.4,30.17,West,270,0.0,0.0,95,0.00,,CLR,0.00,VWS V14.01,2013-08-19 11:17:00,
2013-08-19 07:22:00,59.9,58.5,30.17,West,270,0.0,0.0,95,0.00,,CLR,0.00,VWS V14.01,2013-08-19 11:22:00,
2013-08-19 07:27:00,60.1,58.7,30.17,West,270,1.0,1.0,95,0.00,,CLR,0.00,VWS V14.01,2013-08-19 11:27:00,
2013-08-19 07:30:00,60.3,58.6,30.17,West,267,1.0,1.0,94,0.00,,OVC,0.00,VWS V14.01,2013-08-19 11:30:00,
2013-08-19 07:33:00,60.3,58.6,30.17,West,267,1.0,1.0,94,0.00,,CLR,0.00,VWS V14.01,2013-08-19 11:33:00,
2013-08-19 07:38:00,60.6,58.9,30.17,West,264,0.0,1.0,94,0.00,,CLR,0.00,VWS V14.01,2013-08-19 11:38:00,
2013-08-19 07:43:00,60.9,59.2,30.17,West,269,0.0,1.0,94,0.00,,CLR,0.00,VWS V14.01,2013-08-19 11:43:00,
2013-08-19 07:48:00,61.3,59.3,30.16,West,274,0.0,1.0,93,0.00,,CLR,0.00,VWS V14.01,2013-08-19 11:48:00,
2013-08-19 07:53:00,61.6,59.6,30.16,West,266,1.0,2.0,93,0.00,,CLR,0.00,VWS V14.01,2013-08-19 11:53:00,
2013-08-19 07:58:00,62.1,59.8,30.16,West,264,1.0,2.0,92,0.00,,CLR,0.00,VWS V14.01,2013-08-19 11:58:00,
2013-08-19 08:00:00,62.5,60.2,30.16,West,259,1.0,2.0,92,0.00,,OVC,0.00,VWS V14.01,2013-08-19 12:00:00,
2013-08-19 08:03:00,62.5,60.2,30.16,West,259,1.0,1.0,92,0.00,,CLR,0.00,VWS V14.01,2013-08-19 12:03:00,
2013-08-19 08:08:00,62.9,60.2,30.16,West,262,1.0,1.0,91,0.00,,CLR,0.00,VWS V14.01,2013-08-19 12:08:00,
2013-08-19 08:13:00,63.3,60.6,30.15,WSW,255,1.0,2.0,91,0.00,,CLR,0.00,VWS V14.01,2013-08-19 12:13:00,
2013-08-19 08:18:00,63.7,60.7,30.15,West,259,1.0,2.0,90,0.00,,CLR,0.00,VWS V14.01,2013-08-19 12:18:00,
2013-08-19 08:23:00,64.1,61.1,30.15,WSW,253,1.0,2.0,90,0.00,,CLR,0.00,VWS V14.01,2013-08-19 12:23:00,
2013-08-19 08:28:00,64.5,61.5,30.15,West,262,2.0,2.0,90,0.00,,CLR,0.00,VWS V14.01,2013-08-19 12:28:00,
2013-08-19 08:30:00,64.8,61.5,30.15,West,269,1.0,2.0,89,0.00,,OVC,0.00,VWS V14.01,2013-08-19 12:30:00,
2013-08-19 08:33:00,64.9,61.6,30.15,West,276,1.0,2.0,89,0.00,,CLR,0.00,VWS V14.01,2013-08-19 12:33:00,
2013-08-19 08:38:00,65.2,61.6,30.15,West,264,1.0,3.0,88,0.00,,CLR,0.00,VWS V14.01,2013-08-19 12:38:00,
2013-08-19 08:43:00,65.8,61.8,30.15,West,263,2.0,3.0,87,0.00,,CLR,0.00,VWS V14.01,2013-08-19 12:43:00,
2013-08-19 08:48:00,66.3,62.0,30.15,West,269,0.0,3.0,86,0.00,,CLR,0.00,VWS V14.01,2013-08-19 12:48:00,
2013-08-19 08:54:00,66.9,62.6,30.15,West,260,0.0,3.0,86,0.00,,CLR,0.00,VWS V14.01,2013-08-19 12:54:00,
2013-08-19 08:59:00,67.4,62.7,30.15,WSW,257,1.0,3.0,85,0.00,,CLR,0.00,VWS V14.01,2013-08-19 12:59:00,
2013-08-19 09:00:00,67.8,63.1,30.15,WSW,247,1.0,3.0,85,0.00,,OVC,0.00,VWS V14.01,2013-08-19 13:00:00,
2013-08-19 09:04:00,67.9,63.2,30.15,WSW,248,1.0,1.0,85,0.00,,CLR,0.00,VWS V14.01,2013-08-19 13:04:00,
2013-08-19 09:09:00,68.2,63.5,30.15,WSW,245,0.0,2.0,85,0.00,,CLR,0.00,VWS V14.01,2013-08-19 13:09:00,
2013-08-19 09:14:00,68.3,63.3,30.15,West,261,0.0,2.0,84,0.00,,CLR,0.00,VWS V14.01,2013-08-19 13:14:00,
2013-08-19 09:19:00,68.8,63.8,30.15,WSW,242,2.0,2.0,84,0.00,,CLR,0.00,VWS V14.01,2013-08-19 13:19:00,
2013-08-19 09:30:00,68.7,63.0,30.14,WSW,248,1.0,2.0,82,0.00,,CLR,0.00,VWS V14.01,2013-08-19 13:30:00,
2013-08-19 10:00:00,71.4,64.2,30.14,WSW,248,1.0,3.0,78,0.00,,CLR,0.00,VWS V14.01,2013-08-19 14:00:00,
2013-08-19 10:53:00,75.5,64.2,30.13,SW,232,2.0,3.0,68,0.00,,CLR,0.00,VWS V14.01,2013-08-19 14:53:00,
2013-08-19 10:58:00,75.7,66.0,30.13,SW,222,2.0,3.0,72,0.00,,CLR,0.00,VWS V14.01,2013-08-19 14:58:00,
2013-08-19 11:00:00,75.7,65.6,30.13,WSW,245,1.0,3.0,71,0.00,,OVC,0.00,VWS V14.01,2013-08-19 15:00:00,
2013-08-19 11:04:00,75.8,65.3,30.13,WSW,258,1.0,1.0,70,0.00,,CLR,0.00,VWS V14.01,2013-08-19 15:04:00,
2013-08-19 11:09:00,76.1,63.5,30.13,North,354,1.0,3.0,65,0.00,,CLR,0.00,VWS V14.01,2013-08-19 15:09:00,
2013-08-19 11:14:00,76.4,63.8,30.13,WSW,255,3.0,3.0,65,0.00,,CLR,0.00,VWS V14.01,2013-08-19 15:14:00,
2013-08-19 11:19:00,76.4,64.6,30.12,West,262,2.0,3.0,67,0.00,,CLR,0.00,VWS V14.01,2013-08-19 15:19:00,
2013-08-19 11:24:00,76.1,62.2,30.12,NW,312,4.0,4.0,62,0.00,,CLR,0.00,VWS V14.01,2013-08-19 15:24:00,
2013-08-19 11:29:00,75.1,62.5,30.12,NNE,20,1.0,4.0,65,0.00,,CLR,0.00,VWS V14.01,2013-08-19 15:29:00,
2013-08-19 11:30:00,74.4,61.9,30.13,West,266,1.0,4.0,65,0.00,,OVC,0.00,VWS V14.01,2013-08-19 15:30:00,
2013-08-19 11:34:00,74.2,61.2,30.12,West,259,1.0,1.0,64,0.00,,CLR,0.00,VWS V14.01,2013-08-19 15:34:00,
2013-08-19 11:39:00,74.6,63.8,30.12,SW,235,1.0,1.0,69,0.00,,CLR,0.00,VWS V14.01,2013-08-19 15:39:00,
2013-08-19 11:44:00,75.4,60.6,30.12,West,267,0.0,2.0,60,0.00,,CLR,0.00,VWS V14.01,2013-08-19 15:44:00,
2013-08-19 11:49:00,75.3,63.2,30.12,NW,321,1.0,3.0,66,0.00,,CLR,0.00,VWS V14.01,2013-08-19 15:49:00,
2013-08-19 11:55:00,74.5,62.4,30.12,West,270,1.0,3.0,66,0.00,,CLR,0.00,VWS V14.01,2013-08-19 15:55:00,
2013-08-19 12:00:00,74.8,62.7,30.12,North,1,2.0,3.0,66,0.00,,CLR,0.00,VWS V14.01,2013-08-19 16:00:00,
2013-08-19 12:05:00,74.7,60.8,30.12,ENE,58,0.0,2.0,62,0.00,,CLR,0.00,VWS V14.01,2013-08-19 16:05:00,
2013-08-19 12:10:00,75.2,63.5,30.12,NW,319,2.0,2.0,67,0.00,,CLR,0.00,VWS V14.01,2013-08-19 16:10:00,
2013-08-19 12:15:00,75.5,62.9,30.12,NW,326,2.0,3.0,65,0.00,,CLR,0.00,VWS V14.01,2013-08-19 16:15:00,
2013-08-19 12:20:00,75.7,61.3,30.11,NE,36,3.0,5.0,61,0.00,,CLR,0.00,VWS V14.01,2013-08-19 16:20:00,
2013-08-19 12:25:00,76.2,60.4,30.11,West,271,1.0,5.0,58,0.00,,CLR,0.00,VWS V14.01,2013-08-19 16:25:00,
2013-08-19 12:30:00,76.3,61.9,30.11,West,281,0.0,5.0,61,0.00,,CLR,0.00,VWS V14.01,2013-08-19 16:30:00,
2013-08-19 12:35:00,77.1,61.7,30.11,North,353,2.0,2.0,59,0.00,,CLR,0.00,VWS V14.01,2013-08-19 16:35:00,
2013-08-19 12:40:00,77.4,62.0,30.11,West,266,1.0,4.0,59,0.00,,CLR,0.00,VWS V14.01,2013-08-19 16:40:00,
2013-08-19 12:46:00,77.5,61.6,30.11,West,271,1.0,4.0,58,0.00,,SCT042,0.00,VWS V14.01,2013-08-19 16:46:00,
2013-08-19 12:51:00,77.6,60.2,30.11,WNW,294,0.0,4.0,55,0.00,,SCT042,0.00,VWS V14.01,2013-08-19 16:51:00,
2013-08-19 12:56:00,77.8,63.3,30.11,NW,308,2.0,4.0,61,0.00,,SCT042,0.00,VWS V14.01,2013-08-19 16:56:00,
2013-08-19 13:00:00,77.8,60.4,30.11,NW,324,1.0,4.0,55,0.00,,OVC,0.00,VWS V14.01,2013-08-19 17:00:00,
2013-08-19 13:01:00,77.7,60.8,30.11,North,354,0.0,4.0,56,0.00,,SCT042,0.00,VWS V14.01,2013-08-19 17:01:00,
2013-08-19 13:06:00,77.8,60.9,30.11,North,1,2.0,4.0,56,0.00,,SCT042,0.00,VWS V14.01,2013-08-19 17:06:00,
2013-08-19 13:11:00,77.9,59.9,30.11,NW,308,1.0,4.0,54,0.00,,SCT042,0.00,VWS V14.01,2013-08-19 17:11:00,
2013-08-19 13:16:00,78.1,62.6,30.11,WSW,252,0.0,4.0,59,0.00,,SCT042,0.00,VWS V14.01,2013-08-19 17:16:00,
2013-08-19 13:21:00,78.1,61.6,30.11,NW,305,0.0,7.0,57,0.00,,SCT042,0.00,VWS V14.01,2013-08-19 17:21:00,
2013-08-19 13:27:00,78.0,61.0,30.11,NNW,328,2.0,7.0,56,0.00,,SCT042,0.00,VWS V14.01,2013-08-19 17:27:00,
2013-08-19 13:30:00,77.9,62.0,30.10,West,262,2.0,7.0,58,0.00,,OVC,0.00,VWS V14.01,2013-08-19 17:30:00,
2013-08-19 13:32:00,77.9,61.5,30.11,West,274,1.0,7.0,57,0.00,,SCT042,0.00,VWS V14.01,2013-08-19 17:32:00,
2013-08-19 13:37:00,77.4,59.0,30.10,NNW,347,0.0,5.0,53,0.00,,SCT042,0.00,VWS V14.01,2013-08-19 17:37:00,
2013-08-19 13:42:00,77.1,60.2,30.10,NNW,345,0.0,5.0,56,0.00,,SCT042,0.00,VWS V14.01,2013-08-19 17:42:00,
2013-08-19 13:47:00,77.1,59.7,30.10,WSW,248,1.0,5.0,55,0.00,,SCT049,0.00,VWS V14.01,2013-08-19 17:47:00,
2013-08-19 13:52:00,77.3,60.4,30.10,NW,307,0.0,5.0,56,0.00,,SCT049,0.00,VWS V14.01,2013-08-19 17:52:00,
2013-08-19 13:57:00,77.3,58.8,30.10,NW,323,2.0,5.0,53,0.00,,SCT049,0.00,VWS V14.01,2013-08-19 17:57:00,
2013-08-19 14:00:00,77.1,61.2,30.10,West,266,1.0,5.0,58,0.00,,OVC,0.00,VWS V14.01,2013-08-19 18:00:00,
2013-08-19 14:02:00,77.1,60.7,30.10,WNW,283,1.0,5.0,57,0.00,,SCT049,0.00,VWS V14.01,2013-08-19 18:02:00,
2013-08-19 14:07:00,77.5,61.1,30.10,NW,309,2.0,3.0,57,0.00,,SCT049,0.00,VWS V14.01,2013-08-19 18:07:00,
2013-08-19 14:12:00,77.7,60.3,30.10,NNW,333,1.0,3.0,55,0.00,,SCT049,0.00,VWS V14.01,2013-08-19 18:12:00,
2013-08-19 14:18:00,77.4,59.0,30.10,North,360,2.0,5.0,53,0.00,,SCT049,0.00,VWS V14.01,2013-08-19 18:18:00,
2013-08-19 14:23:00,77.4,60.5,30.09,SE,127,2.0,5.0,56,0.00,,SCT049,0.00,VWS V14.01,2013-08-19 18:23:00,
2013-08-19 14:28:00,77.4,59.0,30.09,NW,322,1.0,5.0,53,0.00,,SCT049,0.00,VWS V14.01,2013-08-19 18:28:00,
2013-08-19 14:30:00,77.0,58.0,30.09,WSW,243,4.0,5.0,52,0.00,,OVC,0.00,VWS V14.01,2013-08-19 18:30:00,
2013-08-19 14:33:00,77.0,58.0,30.09,WSW,246,3.0,4.0,52,0.00,,SCT049,0.00,VWS V14.01,2013-08-19 18:33:00,
2013-08-19 14:38:00,77.1,59.2,30.09,WNW,289,2.0,4.0,54,0.00,,SCT049,0.00,VWS V14.01,2013-08-19 18:38:00,
2013-08-19 14:43:00,77.3,58.8,30.09,NW,321,2.0,4.0,53,0.00,,SCT049,0.00,VWS V14.01,2013-08-19 18:43:00,
2013-08-19 14:48:00,77.6,59.1,30.09,WSW,242,1.0,4.0,53,0.00,,BKN060,0.00,VWS V14.01,2013-08-19 18:48:00,
2013-08-19 14:53:00,77.7,59.8,30.09,SSE,149,1.0,4.0,54,0.00,,BKN060,0.00,VWS V14.01,2013-08-19 18:53:00,
2013-08-19 14:58:00,77.7,58.7,30.09,NNE,33,0.0,4.0,52,0.00,,BKN060,0.00,VWS V14.01,2013-08-19 18:58:00,
2013-08-19 15:00:00,77.7,61.8,30.09,North,3,2.0,4.0,58,0.00,,OVC,0.00,VWS V14.01,2013-08-19 19:00:00,
2013-08-19 15:03:00,77.7,61.8,30.09,SE,138,0.0,2.0,58,0.00,,BKN060,0.00,VWS V14.01,2013-08-19 19:03:00,
2013-08-19 15:08:00,77.7,59.2,30.09,WNW,293,3.0,4.0,53,0.00,,BKN060,0.00,VWS V14.01,2013-08-19 19:08:00,
2013-08-19 15:14:00,77.7,59.2,30.09,NW,311,4.0,4.0,53,0.00,,BKN060,0.00,VWS V14.01,2013-08-19 19:14:00,
2013-08-19 15:19:00,77.5,60.6,30.09,West,267,1.0,4.0,56,0.00,,BKN060,0.00,VWS V14.01,2013-08-19 19:19:00,
2013-08-19 15:24:00,77.3,59.4,30.09,NNW,338,2.0,4.0,54,0.00,,BKN060,0.00,VWS V14.01,2013-08-19 19:24:00,
2013-08-19 15:29:00,77.4,60.0,30.09,West,276,0.0,4.0,55,0.00,,BKN060,0.00,VWS V14.01,2013-08-19 19:29:00,
2013-08-19 15:30:00,77.5,61.1,30.09,West,276,1.0,4.0,57,0.00,,OVC,0.00,VWS V14.01,2013-08-19 19:30:00,
2013-08-19 15:34:00,77.6,61.2,30.09,WSW,242,2.0,3.0,57,0.00,,BKN060,0.00,VWS V14.01,2013-08-19 19:34:00,
2013-08-19 15:39:00,77.6,61.2,30.09,WSW,239,2.0,3.0,57,0.00,,BKN060,0.00,VWS V14.01,2013-08-19 19:39:00,
2013-08-19 15:44:00,77.6,61.2,30.09,North,11,2.0,3.0,57,0.00,,BKN060,0.00,VWS V14.01,2013-08-19 19:44:00,
2013-08-19 15:49:00,77.8,60.4,30.08,SW,229,3.0,3.0,55,0.00,,BKN060,0.00,VWS V14.01,2013-08-19 19:49:00,
2013-08-19 15:54:00,77.7,59.2,30.09,West,271,1.0,3.0,53,0.00,,BKN060,0.00,VWS V14.01,2013-08-19 19:54:00,
2013-08-19 15:59:00,77.7,61.3,30.09,West,278,1.0,3.0,57,0.00,,BKN060,0.00,VWS V14.01,2013-08-19 19:59:00,
2013-08-19 16:00:00,77.7,61.3,30.09,North,8,0.0,3.0,57,0.00,,OVC,0.00,VWS V14.01,2013-08-19 20:00:00,
2013-08-19 16:04:00,77.7,60.3,30.09,North,8,0.0,0.0,55,0.00,,BKN060,0.00,VWS V14.01,2013-08-19 20:04:00,
2013-08-19 16:09:00,77.6,62.2,30.08,NNW,334,2.0,3.0,59,0.00,,BKN060,0.00,VWS V14.01,2013-08-19 20:09:00,
2013-08-19 16:15:00,77.1,62.2,30.09,NW,325,0.0,3.0,60,0.00,,BKN060,0.00,VWS V14.01,2013-08-19 20:15:00,
2013-08-19 16:20:00,76.6,60.7,30.08,NW,311,2.0,3.0,58,0.00,,BKN060,0.00,VWS V14.01,2013-08-19 20:20:00,
2013-08-19 16:25:00,76.3,61.4,30.08,NNW,338,1.0,3.0,60,0.00,,BKN060,0.00,VWS V14.01,2013-08-19 20:25:00,
2013-08-19 16:30:00,76.1,62.6,30.08,NNW,335,0.0,3.0,63,0.00,,BKN060,0.00,VWS V14.01,2013-08-19 20:30:00,
2013-08-19 16:35:00,75.8,62.8,30.08,NNW,338,1.0,1.0,64,0.00,,BKN060,0.00,VWS V14.01,2013-08-19 20:35:00,
2013-08-19 16:40:00,76.3,61.9,30.08,WNW,301,0.0,3.0,61,0.00,,BKN060,0.00,VWS V14.01,2013-08-19 20:40:00,
2013-08-19 16:45:00,77.0,63.0,30.08,WSW,252,1.0,3.0,62,0.00,,FEW060,0.00,VWS V14.01,2013-08-19 20:45:00,
2013-08-19 16:50:00,77.3,64.2,30.08,North,354,1.0,3.0,64,0.00,,FEW060,0.00,VWS V14.01,2013-08-19 20:50:00,
2013-08-19 16:55:00,77.2,63.2,30.08,NW,307,1.0,3.0,62,0.00,,FEW060,0.00,VWS V14.01,2013-08-19 20:55:00,
2013-08-19 17:00:00,77.3,63.3,30.07,NNE,12,2.0,3.0,62,0.00,,FEW060,0.00,VWS V14.01,2013-08-19 21:00:00,
2013-08-19 17:06:00,77.3,62.3,30.08,WNW,287,1.0,2.0,60,0.00,,FEW060,0.00,VWS V14.01,2013-08-19 21:06:00,
2013-08-19 17:11:00,77.2,61.8,30.07,NNE,19,1.0,2.0,59,0.00,,FEW060,0.00,VWS V14.01,2013-08-19 21:11:00,
2013-08-19 17:16:00,77.2,61.8,30.07,WSW,239,2.0,2.0,59,0.00,,FEW060,0.00,VWS V14.01,2013-08-19 21:16:00,
2013-08-19 17:21:00,77.2,63.2,30.07,WNW,286,0.0,2.0,62,0.00,,FEW060,0.00,VWS V14.01,2013-08-19 21:21:00,
2013-08-19 17:26:00,77.1,61.2,30.07,NW,314,2.0,4.0,58,0.00,,FEW060,0.00,VWS V14.01,2013-08-19 21:26:00,
2013-08-19 17:30:00,77.2,62.7,30.07,NNW,336,1.0,4.0,61,0.00,,OVC,0.00,VWS V14.01,2013-08-19 21:30:00,
2013-08-19 17:31:00,77.2,62.7,30.07,NNW,335,0.0,4.0,61,0.00,,FEW060,0.00,VWS V14.01,2013-08-19 21:31:00,
2013-08-19 17:36:00,77.1,61.7,30.07,NW,322,0.0,3.0,59,0.00,,FEW060,0.00,VWS V14.01,2013-08-19 21:36:00,
2013-08-19 17:41:00,77.0,62.1,30.07,NNW,338,1.0,3.0,60,0.00,,FEW060,0.00,VWS V14.01,2013-08-19 21:41:00,
2013-08-19 17:46:00,76.8,61.4,30.07,NW,316,4.0,5.0,59,0.00,,CLR,0.00,VWS V14.01,2013-08-19 21:46:00,
2013-08-19 17:51:00,76.9,62.4,30.07,North,358,0.0,5.0,61,0.00,,CLR,0.00,VWS V14.01,2013-08-19 21:51:00,
2013-08-19 17:56:00,76.6,61.7,30.07,NW,319,1.0,5.0,60,0.00,,CLR,0.00,VWS V14.01,2013-08-19 21:56:00,
2013-08-19 18:00:00,76.4,61.5,30.07,WNW,298,0.0,5.0,60,0.00,,OVC,0.00,VWS V14.01,2013-08-19 22:00:00,
2013-08-19 18:01:00,76.5,62.5,30.07,NNW,345,0.0,5.0,62,0.00,,CLR,0.00,VWS V14.01,2013-08-19 22:01:00,
2013-08-19 18:07:00,76.4,62.9,30.07,North,1,1.0,2.0,63,0.00,,CLR,0.00,VWS V14.01,2013-08-19 22:07:00,
2013-08-19 18:12:00,76.1,61.7,30.07,North,360,1.0,3.0,61,0.00,,CLR,0.00,VWS V14.01,2013-08-19 22:12:00,
2013-08-19 18:17:00,75.7,64.4,30.07,North,360,0.0,3.0,68,0.00,,CLR,0.00,VWS V14.01,2013-08-19 22:17:00,
2013-08-19 18:22:00,74.8,64.4,30.07,North,356,1.0,3.0,70,0.00,,CLR,0.00,VWS V14.01,2013-08-19 22:22:00,
2013-08-19 18:27:00,74.2,63.8,30.07,North,355,1.0,3.0,70,0.00,,CLR,0.00,VWS V14.01,2013-08-19 22:27:00,
2013-08-19 18:30:00,73.9,63.9,30.07,NNW,338,0.0,3.0,71,0.00,,OVC,0.00,VWS V14.01,2013-08-19 22:30:00,
2013-08-19 18:32:00,73.9,63.5,30.07,NNW,338,1.0,3.0,70,0.00,,CLR,0.00,VWS V14.01,2013-08-19 22:32:00,
2013-08-19 18:37:00,73.7,64.1,30.07,NNW,338,1.0,1.0,72,0.00,,CLR,0.00,VWS V14.01,2013-08-19 22:37:00,
2013-08-19 18:42:00,73.3,64.5,30.07,NNW,338,0.0,1.0,74,0.00,,CLR,0.00,VWS V14.01,2013-08-19 22:42:00,
2013-08-19 18:47:00,73.0,64.2,30.07,NNW,338,1.0,1.0,74,0.00,,CLR,0.00,VWS V14.01,2013-08-19 22:47:00,
2013-08-19 18:52:00,72.8,64.0,30.07,NNW,338,0.0,1.0,74,0.00,,CLR,0.00,VWS V14.01,2013-08-19 22:52:00,
2013-08-19 18:57:00,72.6,64.2,30.07,NNW,338,0.0,1.0,75,0.00,,CLR,0.00,VWS V14.01,2013-08-19 22:57:00,
2013-08-19 19:00:00,72.4,64.4,30.07,NNW,330,0.0,1.0,76,0.00,,OVC,0.00,VWS V14.01,2013-08-19 23:00:00,
2013-08-19 19:02:00,72.4,64.0,30.07,NNW,330,0.0,1.0,75,0.00,,CLR,0.00,VWS V14.01,2013-08-19 23:02:00,
2013-08-19 19:07:00,72.0,64.0,30.07,NNW,330,0.0,1.0,76,0.00,,CLR,0.00,VWS V14.01,2013-08-19 23:07:00,
2013-08-19 19:12:00,71.6,63.6,30.07,NNW,331,1.0,1.0,76,0.00,,CLR,0.00,VWS V14.01,2013-08-19 23:12:00,
2013-08-19 19:18:00,71.5,63.9,30.07,NNW,335,0.0,1.0,77,0.00,,CLR,0.00,VWS V14.01,2013-08-19 23:18:00,
2013-08-19 19:23:00,71.2,63.6,30.07,NNW,334,0.0,1.0,77,0.00,,CLR,0.00,VWS V14.01,2013-08-19 23:23:00,
2013-08-19 19:28:00,70.7,63.9,30.07,NNW,335,0.0,1.0,79,0.00,,CLR,0.00,VWS V14.01,2013-08-19 23:28:00,
2013-08-19 19:30:00,70.3,63.8,30.07,NNW,335,0.0,1.0,80,0.00,,OVC,0.00,VWS V14.01,2013-08-19 23:30:00,
2013-08-19 19:33:00,70.3,63.8,30.07,NNW,335,0.0,1.0,80,0.00,,CLR,0.00,VWS V14.01,2013-08-19 23:33:00,
2013-08-19 19:38:00,70.1,64.0,30.07,NNW,334,0.0,1.0,81,0.00,,CLR,0.00,VWS V14.01,2013-08-19 23:38:00,
2013-08-19 19:43:00,69.8,63.4,30.07,NNW,335,0.0,1.0,80,0.00,,CLR,0.00,VWS V14.01,2013-08-19 23:43:00,
2013-08-19 19:48:00,69.6,63.2,30.07,NNW,334,0.0,1.0,80,0.00,,CLR,0.00,VWS V14.01,2013-08-19 23:48:00,
2013-08-19 19:53:00,69.6,63.5,30.07,NNW,334,0.0,1.0,81,0.00,,CLR,0.00,VWS V14.01,2013-08-19 23:53:00,
2013-08-19 19:58:00,69.6,63.2,30.07,NNW,335,0.0,1.0,80,0.00,,CLR,0.00,VWS V14.01,2013-08-19 23:58:00,
2013-08-19 20:00:00,69.6,63.2,30.07,NNW,334,0.0,1.0,80,0.00,,OVC,0.00,VWS V14.01,2013-08-20 00:00:00,
2013-08-19 20:03:00,69.6,63.2,30.07,NNW,335,0.0,0.0,80,0.00,,CLR,0.00,VWS V14.01,2013-08-20 00:03:00,
2013-08-19 20:08:00,69.4,63.3,30.07,NNW,335,0.0,0.0,81,0.00,,CLR,0.00,VWS V14.01,2013-08-20 00:08:00,
2013-08-19 20:13:00,69.0,62.9,30.08,NNW,334,0.0,0.0,81,0.00,,CLR,0.00,VWS V14.01,2013-08-20 00:13:00,
2013-08-19 20:18:00,68.9,63.2,30.08,NNW,333,0.0,0.0,82,0.00,,CLR,0.00,VWS V14.01,2013-08-20 00:18:00,
2013-08-19 20:23:00,68.8,63.1,30.08,NNW,333,0.0,0.0,82,0.00,,CLR,0.00,VWS V14.01,2013-08-20 00:23:00,
2013-08-19 20:29:00,68.6,62.9,30.08,NNW,333,0.0,0.0,82,0.00,,CLR,0.00,VWS V14.01,2013-08-20 00:29:00,
2013-08-19 20:30:00,68.6,62.9,30.08,NNW,333,0.0,0.0,82,0.00,,OVC,0.00,VWS V14.01,2013-08-20 00:30:00,
2013-08-19 20:34:00,68.5,62.8,30.08,NNW,333,0.0,0.0,82,0.00,,CLR,0.00,VWS V14.01,2013-08-20 00:34:00,
2013-08-19 20:39:00,68.3,62.9,30.08,NNW,333,0.0,0.0,83,0.00,,CLR,0.00,VWS V14.01,2013-08-20 00:39:00,
2013-08-19 20:44:00,67.9,63.2,30.08,NNW,333,0.0,0.0,85,0.00,,CLR,0.00,VWS V14.01,2013-08-20 00:44:00,
2013-08-19 20:49:00,67.4,62.4,30.08,NNW,334,0.0,0.0,84,0.00,,CLR,0.00,VWS V14.01,2013-08-20 00:49:00,
2013-08-19 20:54:00,66.9,62.6,30.08,NNW,334,0.0,0.0,86,0.00,,CLR,0.00,VWS V14.01,2013-08-20 00:54:00,
2013-08-19 20:59:00,66.4,62.4,30.08,NNW,335,0.0,0.0,87,0.00,,CLR,0.00,VWS V14.01,2013-08-20 00:59:00,
2013-08-19 21:00:00,66.0,62.0,30.08,NNW,335,0.0,0.0,87,0.00,,OVC,0.00,VWS V14.01,2013-08-20 01:00:00,
2013-08-19 21:04:00,65.9,61.9,30.09,NNW,335,0.0,0.0,87,0.00,,CLR,0.00,VWS V14.01,2013-08-20 01:04:00,
2013-08-19 21:09:00,65.5,61.9,30.09,NNW,335,0.0,0.0,88,0.00,,CLR,0.00,VWS V14.01,2013-08-20 01:09:00,
2013-08-19 21:14:00,65.3,62.0,30.09,NNW,334,0.0,0.0,89,0.00,,CLR,0.00,VWS V14.01,2013-08-20 01:14:00,
2013-08-19 21:19:00,65.1,61.8,30.09,NNW,335,0.0,0.0,89,0.00,,CLR,0.00,VWS V14.01,2013-08-20 01:19:00,
2013-08-19 21:24:00,64.9,61.6,30.09,NNW,335,0.0,0.0,89,0.00,,CLR,0.00,VWS V14.01,2013-08-20 01:24:00,
2013-08-19 21:29:00,64.7,61.7,30.09,NNW,334,0.0,0.0,90,0.00,,CLR,0.00,VWS V14.01,2013-08-20 01:29:00,
2013-08-19 21:30:00,64.5,61.5,30.09,NNW,335,0.0,0.0,90,0.00,,OVC,0.00,VWS V14.01,2013-08-20 01:30:00,
2013-08-19 21:35:00,64.5,61.5,30.09,NNW,335,0.0,0.0,90,0.00,,CLR,0.00,VWS V14.01,2013-08-20 01:35:00,
2013-08-19 21:40:00,64.2,61.2,30.09,NNW,335,0.0,0.0,90,0.00,,CLR,0.00,VWS V14.01,2013-08-20 01:40:00,
2013-08-19 21:45:00,64.0,61.3,30.09,NNW,334,0.0,0.0,91,0.00,,CLR,0.00,VWS V14.01,2013-08-20 01:45:00,
2013-08-19 21:50:00,63.8,61.4,30.09,NNW,335,0.0,0.0,92,0.00,,CLR,0.00,VWS V14.01,2013-08-20 01:50:00,
2013-08-19 21:55:00,63.7,61.3,30.09,NNW,335,0.0,0.0,92,0.00,,CLR,0.00,VWS V14.01,2013-08-20 01:55:00,
2013-08-19 22:00:00,63.8,61.7,30.09,NNW,334,0.0,0.0,93,0.00,,CLR,0.00,VWS V14.01,2013-08-20 02:00:00,
2013-08-19 22:05:00,63.6,61.5,30.10,NNW,335,0.0,0.0,93,0.00,,CLR,0.00,VWS V14.01,2013-08-20 02:05:00,
2013-08-19 22:10:00,63.5,61.4,30.09,NNW,335,0.0,0.0,93,0.00,,CLR,0.00,VWS V14.01,2013-08-20 02:10:00,
2013-08-19 22:15:00,63.4,61.7,30.10,NNW,335,0.0,0.0,94,0.00,,CLR,0.00,VWS V14.01,2013-08-20 02:15:00,
2013-08-19 22:20:00,63.4,61.7,30.09,NNW,334,0.0,0.0,94,0.00,,CLR,0.00,VWS V14.01,2013-08-20 02:20:00,
2013-08-19 22:25:00,63.3,61.5,30.10,NNW,335,0.0,0.0,94,0.00,,CLR,0.00,VWS V14.01,2013-08-20 02:25:00,
2013-08-19 22:30:00,63.2,61.5,30.10,NNW,335,0.0,0.0,94,0.00,,CLR,0.00,VWS V14.01,2013-08-20 02:30:00,
2013-08-19 22:36:00,63.1,61.3,30.10,NNW,334,0.0,0.0,94,0.00,,CLR,0.00,VWS V14.01,2013-08-20 02:36:00,
2013-08-19 22:41:00,62.8,61.0,30.10,NNW,334,0.0,0.0,94,0.00,,CLR,0.00,VWS V14.01,2013-08-20 02:41:00,
2013-08-19 22:46:00,62.6,60.8,30.10,NNW,335,0.0,0.0,94,0.00,,CLR,0.00,VWS V14.01,2013-08-20 02:46:00,
2013-08-19 22:51:00,62.3,60.6,30.10,NNW,335,0.0,0.0,94,0.00,,CLR,0.00,VWS V14.01,2013-08-20 02:51:00,
2013-08-19 22:56:00,62.2,60.5,30.10,NNW,334,0.0,0.0,94,0.00,,CLR,0.00,VWS V14.01,2013-08-20 02:56:00,
2013-08-19 23:00:00,62.1,60.4,30.11,NNW,335,0.0,0.0,94,0.00,,OVC,0.00,VWS V14.01,2013-08-20 03:00:00,
2013-08-19 23:01:00,62.1,60.4,30.10,NNW,335,0.0,0.0,94,0.00,,CLR,0.00,VWS V14.01,2013-08-20 03:01:00,
2013-08-19 23:06:00,62.0,60.3,30.10,NNW,335,0.0,0.0,94,0.00,,CLR,0.00,VWS V14.01,2013-08-20 03:06:00,
2013-08-19 23:11:00,62.0,60.6,30.10,NNW,335,0.0,0.0,95,0.00,,CLR,0.00,VWS V14.01,2013-08-20 03:11:00,
2013-08-19 23:16:00,61.8,60.4,30.10,NNW,335,0.0,0.0,95,0.00,,CLR,0.00,VWS V14.01,2013-08-20 03:16:00,
2013-08-19 23:21:00,61.6,60.2,30.10,NNW,335,0.0,0.0,95,0.00,,CLR,0.00,VWS V14.01,2013-08-20 03:21:00,
2013-08-19 23:26:00,61.5,60.1,30.10,NNW,335,0.0,0.0,95,0.00,,CLR,0.00,VWS V14.01,2013-08-20 03:26:00,
2013-08-19 23:30:00,61.4,60.0,30.10,NNW,335,0.0,0.0,95,0.00,,OVC,0.00,VWS V14.01,2013-08-20 03:30:00,
2013-08-19 23:31:00,61.4,60.0,30.10,NNW,335,0.0,0.0,95,0.00,,CLR,0.00,VWS V14.01,2013-08-20 03:31:00,
2013-08-19 23:36:00,61.3,59.9,30.11,NNW,335,0.0,0.0,95,0.00,,CLR,0.00,VWS V14.01,2013-08-20 03:36:00,
2013-08-19 23:41:00,61.2,59.8,30.11,NNW,335,0.0,0.0,95,0.00,,CLR,0.00,VWS V14.01,2013-08-20 03:41:00,
2013-08-19 23:46:00,61.1,59.7,30.11,NNW,335,0.0,0.0,95,0.00,,CLR,0.00,VWS V14.01,2013-08-20 03:46:00,
2013-08-19 23:52:00,61.1,59.7,30.10,NNW,335,0.0,0.0,95,0.00,,CLR,0.00,VWS V14.01,2013-08-20 03:52:00,
2013-08-19 23:57:00,60.9,59.5,30.10,NNW,335,0.0,0.0,95,0.00,,CLR,0.00,VWS V14.01,2013-08-20 03:57:00,